createdAt,value
2022-11-12T00:01:00.952Z,15.40
2022-11-12T00:04:23.149Z,11.77
2022-11-12T00:07:45.379Z,13.38
2022-11-12T00:11:07.705Z,11.88
2022-11-12T00:14:31.883Z,10.88
2022-11-12T00:17:54.485Z,11.05
2022-11-12T00:21:16.584Z,9.88
2022-11-12T00:24:38.880Z,15.88
2022-11-12T00:28:05.487Z,10.10
2022-11-12T00:31:29.540Z,12.18
2022-11-12T00:34:51.753Z,15.90
2022-11-12T00:38:13.917Z,11.20
2022-11-12T00:41:36.371Z,10.77
2022-11-12T00:44:58.586Z,7.70
2022-11-12T00:48:23.016Z,12.57
2022-11-12T00:51:45.739Z,12.18
2022-11-12T00:55:08.401Z,9.63
2022-11-12T00:58:31.684Z,12.90
2022-11-12T01:01:54.091Z,14.00
2022-11-12T01:05:18.398Z,11.23
2022-11-12T01:08:41.102Z,11.43
2022-11-12T01:12:03.362Z,12.43
2022-11-12T01:15:25.518Z,11.10
2022-11-12T01:18:48.853Z,13.63
2022-11-12T01:22:13.428Z,12.93
2022-11-12T01:28:58.213Z,11.85
2022-11-12T01:32:20.528Z,13.27
2022-11-12T01:35:42.736Z,10.27
2022-11-12T01:39:09.159Z,9.35
2022-11-12T01:42:33.444Z,9.93
2022-11-12T01:45:55.967Z,9.77
2022-11-12T01:49:23.286Z,9.95
2022-11-12T01:52:50.038Z,9.43
2022-11-12T01:56:16.308Z,13.15
2022-11-12T01:59:42.420Z,10.93
2022-11-12T02:03:09.419Z,8.98
2022-11-12T02:06:33.422Z,19.27
2022-11-12T02:09:56.425Z,10.98
2022-11-12T02:13:34.364Z,10.88
2022-11-12T02:16:56.719Z,11.05
2022-11-12T02:20:18.945Z,9.85
2022-11-12T02:23:43.364Z,10.57
2022-11-12T02:27:07.457Z,12.32
2022-11-12T02:30:38.421Z,9.50
2022-11-12T02:34:00.877Z,13.38
2022-11-12T02:37:23.101Z,15.13
2022-11-12T02:40:47.396Z,10.57
2022-11-12T02:44:09.780Z,11.85
2022-11-12T02:47:36.068Z,7.72
2022-11-12T02:50:58.276Z,16.02
2022-11-12T02:54:20.655Z,10.45
2022-11-12T02:57:44.884Z,9.95
2022-11-12T03:01:07.075Z,11.43
2022-11-12T03:04:29.630Z,14.70
2022-11-12T03:07:51.817Z,12.77
2022-11-12T03:11:16.236Z,11.30
2022-11-12T03:14:40.519Z,9.07
2022-11-12T03:18:03.021Z,10.18
2022-11-12T03:21:25.307Z,13.52
2022-11-12T03:24:47.297Z,9.75
2022-11-12T03:28:11.311Z,15.13
2022-11-12T03:31:35.451Z,9.60
2022-11-12T03:38:19.653Z,10.32
2022-11-12T03:41:41.667Z,10.63
2022-11-12T03:45:05.010Z,12.07
2022-11-12T03:48:29.533Z,8.57
2022-11-12T03:51:51.693Z,12.43
2022-11-12T03:55:14.528Z,11.07
2022-11-12T03:58:36.793Z,9.88
2022-11-12T04:01:59.053Z,9.05
2022-11-12T04:05:36.943Z,11.38
2022-11-12T04:08:59.299Z,13.75
2022-11-12T04:12:34.749Z,11.98
2022-11-12T04:16:11.887Z,10.63
2022-11-12T04:19:47.190Z,12.15
2022-11-12T04:23:11.287Z,8.73
2022-11-12T04:26:31.469Z,11.68
2022-11-12T04:30:08.005Z,8.30
2022-11-12T04:33:30.444Z,8.32
2022-11-12T04:36:53.025Z,10.80
2022-11-12T04:40:32.081Z,8.80
2022-11-12T04:44:07.711Z,13.45
2022-11-12T04:47:35.495Z,8.93
2022-11-12T04:51:01.177Z,8.68
2022-11-12T04:54:23.065Z,9.93
2022-11-12T04:57:47.248Z,11.52
2022-11-12T05:01:09.437Z,10.25
2022-11-12T05:04:31.683Z,12.85
2022-11-12T05:07:54.166Z,12.88
2022-11-12T05:11:16.506Z,9.10
2022-11-12T05:14:41.201Z,14.23
2022-11-12T05:18:03.786Z,8.98
2022-11-12T05:21:43.302Z,14.75
2022-11-12T05:25:06.498Z,12.52
2022-11-12T05:28:29.193Z,8.23
2022-11-12T05:31:53.588Z,8.85
2022-11-12T05:35:15.894Z,12.35
2022-11-12T05:38:38.586Z,8.32
2022-11-12T05:42:16.064Z,6.65
2022-11-12T05:45:38.547Z,8.18
2022-11-12T05:49:02.574Z,7.25
2022-11-12T05:52:24.649Z,9.13
2022-11-12T05:55:47.094Z,5.65
2022-11-12T05:59:12.564Z,12.88
2022-11-12T06:02:35.527Z,6.93
2022-11-12T06:05:59.746Z,11.15
2022-11-12T06:09:21.730Z,8.43
2022-11-12T06:12:44.153Z,6.63
2022-11-12T06:16:07.325Z,9.15
2022-11-12T06:19:29.811Z,6.57
2022-11-12T06:22:54.187Z,13.52
2022-11-12T06:26:16.637Z,10.27
2022-11-12T06:29:40.153Z,6.57
2022-11-12T06:33:02.258Z,7.50
2022-11-12T06:36:24.843Z,8.68
2022-11-12T06:39:49.117Z,8.50
2022-11-12T06:43:11.244Z,6.65
2022-11-12T06:46:33.538Z,6.20
2022-11-12T06:49:55.592Z,7.57
2022-11-12T06:53:18.067Z,10.10
2022-11-12T06:56:42.242Z,6.10
2022-11-12T07:00:04.834Z,7.03
2022-11-12T07:03:27.390Z,7.70
2022-11-12T07:06:49.638Z,10.07
2022-11-12T07:10:12.233Z,7.65
2022-11-12T07:13:37.584Z,9.90
2022-11-12T07:16:59.952Z,12.60
2022-11-12T07:20:22.432Z,9.50
2022-11-12T07:23:44.944Z,6.97
2022-11-12T07:27:07.403Z,6.65
2022-11-12T07:30:31.648Z,7.00
2022-11-12T07:33:54.447Z,6.85
2022-11-12T07:37:16.454Z,5.22
2022-11-12T07:40:38.568Z,6.22
2022-11-12T07:44:00.701Z,7.93
2022-11-12T07:47:25.406Z,16.23
2022-11-12T07:50:47.474Z,11.93
2022-11-12T07:54:10.198Z,13.10
2022-11-12T07:57:34.408Z,14.50
2022-11-12T08:00:59.637Z,16.83
2022-11-12T08:04:23.611Z,42.20
2022-11-12T08:11:08.607Z,63.63
2022-11-12T08:14:30.660Z,33.05
2022-11-12T08:17:52.830Z,28.33
2022-11-12T08:21:18.902Z,19.25
2022-11-12T08:24:41.337Z,33.47
2022-11-12T08:28:03.625Z,14.75
2022-11-12T08:31:26.289Z,20.88
2022-11-12T08:34:48.601Z,19.23
2022-11-12T08:38:13.562Z,18.67
2022-11-12T08:41:36.310Z,21.13
2022-11-12T08:44:59.095Z,18.13
2022-11-12T08:48:21.922Z,14.13
2022-11-12T08:51:44.506Z,33.90
2022-11-12T08:55:10.071Z,35.78
2022-11-12T08:58:32.498Z,24.10
2022-11-12T09:01:54.577Z,25.73
2022-11-12T09:05:17.299Z,24.63
2022-11-12T09:08:39.748Z,22.27
2022-11-12T09:12:11.459Z,33.60
2022-11-12T09:15:38.563Z,17.30
2022-11-12T09:19:01.091Z,18.30
2022-11-12T09:22:23.515Z,22.85
2022-11-12T09:25:46.189Z,22.90
2022-11-12T09:29:10.757Z,18.73
2022-11-12T09:32:32.980Z,25.95
2022-11-12T09:35:55.826Z,26.83
2022-11-12T09:39:18.096Z,32.30
2022-11-12T09:42:40.586Z,39.90
2022-11-12T09:46:27.357Z,24.50
2022-11-12T09:49:56.578Z,30.25
2022-11-12T09:53:20.804Z,32.17
2022-11-12T09:56:42.958Z,26.40
2022-11-12T10:00:12.306Z,33.97
2022-11-12T10:03:43.577Z,23.73
2022-11-12T10:07:10.609Z,30.67
2022-11-12T10:10:43.271Z,28.48
2022-11-12T10:14:14.876Z,23.02
2022-11-12T10:17:41.398Z,20.38
2022-11-12T10:21:13.557Z,26.27
2022-11-12T10:24:38.252Z,19.77
2022-11-12T10:31:23.572Z,20.88
2022-11-12T10:34:45.776Z,16.63
2022-11-12T10:38:17.122Z,16.73
2022-11-12T10:41:39.356Z,20.02
2022-11-12T10:45:21.486Z,20.05
2022-11-12T10:48:56.343Z,21.38
2022-11-12T10:52:26.469Z,16.17
2022-11-12T10:55:59.822Z,15.30
2022-11-12T10:59:23.380Z,18.52
2022-11-12T11:02:50.736Z,15.98
2022-11-12T11:06:23.827Z,15.50
2022-11-12T11:09:54.481Z,12.00
2022-11-12T11:13:24.011Z,14.52
2022-11-12T11:16:51.721Z,15.35
2022-11-12T11:20:25.647Z,12.68
2022-11-12T11:23:53.916Z,14.68
2022-11-12T11:27:34.896Z,16.35
2022-11-12T11:31:08.291Z,10.18
2022-11-12T11:34:39.207Z,13.63
2022-11-12T11:38:17.554Z,9.52
2022-11-12T11:41:54.346Z,12.23
2022-11-12T11:45:20.456Z,12.18
2022-11-12T11:48:55.598Z,11.55
2022-11-12T11:52:32.784Z,12.93
2022-11-12T11:55:58.576Z,9.23
2022-11-12T11:59:39.183Z,12.45
2022-11-12T12:03:18.594Z,12.05
2022-11-12T12:06:50.642Z,13.75
2022-11-12T12:10:34.750Z,11.65
2022-11-12T12:14:28.748Z,9.70
2022-11-12T12:18:01.727Z,14.77
2022-11-12T12:21:26.808Z,11.38
2022-11-12T12:24:54.507Z,11.63
2022-11-12T12:28:25.513Z,14.82
2022-11-12T12:31:53.177Z,13.35
2022-11-12T12:35:25.529Z,12.48
2022-11-12T12:38:53.230Z,13.40
2022-11-12T12:42:23.434Z,11.90
2022-11-12T12:45:47.519Z,14.35
2022-11-12T12:49:17.007Z,10.80
2022-11-12T12:53:00.749Z,12.18
2022-11-12T12:56:45.799Z,13.98
2022-11-12T13:04:01.670Z,11.35
2022-11-12T13:07:40.704Z,18.20
2022-11-12T13:11:03.062Z,16.08
2022-11-12T13:14:46.814Z,15.70
2022-11-12T13:18:16.895Z,12.77
2022-11-12T13:21:41.615Z,11.85
2022-11-12T13:28:27.145Z,12.20
2022-11-12T13:31:49.835Z,13.02
2022-11-12T13:35:27.972Z,16.20
2022-11-12T13:38:56.429Z,14.07
2022-11-12T13:42:34.168Z,12.55
2022-11-12T13:45:59.821Z,13.65
2022-11-12T13:49:22.333Z,9.68
2022-11-12T13:52:44.870Z,13.80
2022-11-12T13:56:13.933Z,18.02
2022-11-12T13:59:36.573Z,10.30
2022-11-12T14:03:01.936Z,11.80
2022-11-12T14:06:30.174Z,12.60
2022-11-12T14:10:02.752Z,10.77
2022-11-12T14:13:43.910Z,16.90
2022-11-12T14:17:22.377Z,8.52
2022-11-12T14:20:44.941Z,9.20
2022-11-12T14:24:12.258Z,13.10
2022-11-12T14:27:36.762Z,10.48
2022-11-12T14:31:02.777Z,13.25
2022-11-12T14:34:30.795Z,12.45
2022-11-12T14:37:55.586Z,7.65
2022-11-12T14:44:41.497Z,14.88
2022-11-12T14:48:11.035Z,33.25
2022-11-12T14:51:47.295Z,30.95
2022-11-12T14:55:13.641Z,33.47
2022-11-12T14:58:36.806Z,17.50
2022-11-12T15:06:08.136Z,13.80
2022-11-12T15:09:36.204Z,16.73
2022-11-12T15:13:04.693Z,20.02
2022-11-12T15:16:29.794Z,17.42
2022-11-12T15:19:51.999Z,11.93
2022-11-12T15:23:20.576Z,13.23
2022-11-12T15:26:45.480Z,10.35
2022-11-12T15:30:17.981Z,9.73
2022-11-12T15:33:40.320Z,10.95
2022-11-12T15:37:06.855Z,10.93
2022-11-12T15:40:32.381Z,11.32
2022-11-12T15:43:54.920Z,12.77
2022-11-12T15:47:22.229Z,11.02
2022-11-12T15:50:44.713Z,11.60
2022-11-12T15:54:07.357Z,9.30
2022-11-12T15:57:35.691Z,12.10
2022-11-12T16:00:58.257Z,13.45
2022-11-12T16:04:20.845Z,14.15
2022-11-12T16:07:43.102Z,11.30
2022-11-12T16:11:25.541Z,21.15
2022-11-12T16:14:50.014Z,14.38
2022-11-12T16:18:12.849Z,15.50
2022-11-12T16:21:34.900Z,13.70
2022-11-12T16:24:57.118Z,12.45
2022-11-12T16:28:20.785Z,15.60
2022-11-12T16:31:45.662Z,15.13
2022-11-12T16:35:08.485Z,17.98
2022-11-12T16:38:31.231Z,18.27
2022-11-12T16:41:53.413Z,15.90
2022-11-12T16:45:18.876Z,14.68
2022-11-12T16:48:43.101Z,13.50
2022-11-12T16:52:05.797Z,16.67
2022-11-12T16:55:28.388Z,14.15
2022-11-12T16:58:51.545Z,14.45
2022-11-12T17:02:17.156Z,17.40
2022-11-12T17:05:41.159Z,16.02
2022-11-12T17:09:03.554Z,15.52
2022-11-12T17:12:25.730Z,14.75
2022-11-12T17:15:47.923Z,16.58
2022-11-12T17:19:12.223Z,15.57
2022-11-12T17:26:02.634Z,17.67
2022-11-12T17:29:24.761Z,21.33
2022-11-12T17:32:48.259Z,16.08
2022-11-12T17:36:13.185Z,14.20
2022-11-12T17:39:37.208Z,18.42
2022-11-12T17:42:59.217Z,19.85
2022-11-12T17:46:21.414Z,25.27
2022-11-12T17:49:44.024Z,24.27
2022-11-12T17:53:06.253Z,19.15
2022-11-12T17:56:36.667Z,18.08
2022-11-12T17:59:59.055Z,16.73
2022-11-12T18:03:21.306Z,19.83
2022-11-12T18:06:43.502Z,18.52
2022-11-12T18:10:06.870Z,16.20
2022-11-12T18:13:31.322Z,18.48
2022-11-12T18:16:53.544Z,19.52
2022-11-12T18:20:16.704Z,19.85
2022-11-12T18:23:39.355Z,22.45
2022-11-12T18:27:01.762Z,22.85
2022-11-12T18:30:26.066Z,19.25
2022-11-12T18:33:48.799Z,20.20
2022-11-12T18:37:11.115Z,21.27
2022-11-12T18:40:33.545Z,22.75
2022-11-12T18:43:56.373Z,25.83
2022-11-12T18:47:23.346Z,23.42
2022-11-12T18:50:45.558Z,26.10
2022-11-12T18:54:08.571Z,27.67
2022-11-12T18:57:30.976Z,24.27
2022-11-12T19:00:53.471Z,26.10
2022-11-12T19:04:17.743Z,27.38
2022-11-12T19:07:40.053Z,25.73
2022-11-12T19:11:04.049Z,22.30
2022-11-12T19:14:26.287Z,23.90
2022-11-12T19:17:49.055Z,19.20
2022-11-12T19:21:15.260Z,23.20
2022-11-12T19:24:37.763Z,18.77
2022-11-12T19:28:00.455Z,25.42
2022-11-12T19:31:24.301Z,28.75
2022-11-12T19:34:46.750Z,22.92
2022-11-12T19:38:10.833Z,19.45
2022-11-12T19:41:33.201Z,18.00
2022-11-12T19:44:55.551Z,20.50
2022-11-12T19:48:20.951Z,18.95
2022-11-12T19:51:43.197Z,22.20
2022-11-12T19:55:09.611Z,25.63
2022-11-12T19:58:32.405Z,21.95
2022-11-12T20:01:54.808Z,23.05
2022-11-12T20:05:17.279Z,17.35
2022-11-12T20:08:39.874Z,18.55
2022-11-12T20:12:04.402Z,21.20
2022-11-12T20:15:26.999Z,19.42
2022-11-12T20:18:51.089Z,21.30
2022-11-12T20:25:36.125Z,21.35
2022-11-12T20:29:00.278Z,19.95
2022-11-12T20:32:23.494Z,17.35
2022-11-12T20:35:45.671Z,19.60
2022-11-12T20:39:08.068Z,20.20
2022-11-12T20:42:30.545Z,27.95
2022-11-12T20:45:54.965Z,21.83
2022-11-12T20:49:17.548Z,28.20
2022-11-12T20:52:39.805Z,24.80
2022-11-12T20:56:10.485Z,23.60
2022-11-12T20:59:40.371Z,27.23
2022-11-12T21:03:05.349Z,22.42
2022-11-12T21:06:29.828Z,20.08
2022-11-12T21:09:51.766Z,20.35
2022-11-12T21:13:16.459Z,19.45
2022-11-12T21:16:38.978Z,21.80
2022-11-12T21:20:03.530Z,23.13
2022-11-12T21:23:26.036Z,26.85
2022-11-12T21:26:50.243Z,28.42
2022-11-12T21:33:35.141Z,24.60
2022-11-12T21:36:59.248Z,20.25
2022-11-12T21:40:22.630Z,18.40
2022-11-12T21:43:47.008Z,22.50
2022-11-12T21:47:09.399Z,23.20
2022-11-12T21:50:32.221Z,19.80
2022-11-12T21:53:58.872Z,26.10
2022-11-12T21:57:21.167Z,23.27
2022-11-12T22:00:43.236Z,23.75
2022-11-12T22:04:08.392Z,21.85
2022-11-12T22:07:31.191Z,20.15
2022-11-12T22:11:01.138Z,23.05
2022-11-12T22:14:23.592Z,21.90
2022-11-12T22:17:46.170Z,24.90
2022-11-12T22:21:09.864Z,25.08
2022-11-12T22:24:32.329Z,23.15
2022-11-12T22:27:56.369Z,24.42
2022-11-12T22:31:23.790Z,23.15
2022-11-12T22:34:49.445Z,20.88
2022-11-12T22:38:12.586Z,22.80
2022-11-12T22:41:35.295Z,19.77
2022-11-12T22:44:59.544Z,16.35
2022-11-12T22:48:21.875Z,19.30
2022-11-12T22:51:44.259Z,19.08
2022-11-12T22:55:07.365Z,16.38
2022-11-12T22:58:30.200Z,25.02
2022-11-12T23:01:54.893Z,23.20
2022-11-12T23:05:17.199Z,25.58
2022-11-12T23:08:39.409Z,29.35
2022-11-12T23:12:01.763Z,25.27
2022-11-12T23:15:24.134Z,26.10
2022-11-12T23:18:48.314Z,26.45
2022-11-12T23:25:34.670Z,26.85
2022-11-12T23:28:57.006Z,27.80
2022-11-12T23:32:19.184Z,31.65
2022-11-12T23:35:43.090Z,27.25
2022-11-12T23:39:05.302Z,25.92
2022-11-12T23:42:27.696Z,26.45
2022-11-12T23:45:51.849Z,26.58
2022-11-12T23:49:14.149Z,19.40
2022-11-12T23:52:38.026Z,22.38
2022-11-12T23:56:00.431Z,21.75
2022-11-12T23:59:22.666Z,20.13
